Coloma, WI (54930)

2:52 AM CST on February 07, 2016 (GMT -0600)
WIDOT | | Change Station
CLOSE
Current Station
Personal Weather Station
Location: Coloma, WI
Elevation: 960 ft
Nearby Weather Stations

Elev 960 ft 44.00 °N, 89.50 °W | Updated 53 minutes ago

Overcast
Overcast
0.0 °F
Feels Like 0.0 °F
N
1.0
Wind Variable Wind from North
Gusts 1.0 mph

Today
High -- | Low -- °F
--% Chance of Precip.
Yesterday
High -- | Low -- °F
Precip. -- in
Pressure 29.85 in
Visibility 10.0 miles
Clouds Overcast 7000 ft
Dew Point 0.0 °F
Humidity 99%
Rainfall in
Snow Depth Not available.
7:09 AM 5:16 PM
Waning Crescent, 2% visible
METAR KY50 070756Z AUTO 20005KT 10SM OVC070 00/M02 A2983 RMK AO2 TSNO T00001016 SLP108
Pressure 29.85 in
Visibility 10.0 miles
Clouds Overcast 7000 ft
Dew Point 0.0 °F
Humidity 99%
Rainfall in
Snow Depth Not available.
7:09 AM 5:16 PM
Waning Crescent, 2% visible
METAR KY50 070756Z AUTO 20005KT 10SM OVC070 00/M02 A2983 RMK AO2 TSNO T00001016 SLP108

10-Day Weather Forecast

Almanac

Astronomy

Feb. 07, 2016 Rise Set
Actual Time
Civil Twilight
Nautical Twilight
Astronomical Twilight
Moon
Length of Visible Light
Length of Day
Tomorrow will be .
, % of the Moon is Illuminated

Today's Extremes

State Highs State Lows

Community

WunderPhotos

Upload Photos

1,891,171 photos uploaded!

WunderBlog® & News

Nearby

Air Quality

  Air Quality AQ Index Pollutant
Not available.

Snow Depth

Station Depth Elevation

Earthquake Activity

City Distance Mag. Time & Date
Minimum magnitude displayed is 2.5.

Coastal Water Temperatures

Place Temperature

Stations

Nearby Weather Stations

Station Location Temp. Windchill Dew Point Humidity Wind Precip. Elev Updated Type
                   

Watches & Warnings

There are currently no watches in effect.